createdAt,value
2018-01-10T00:00:39.742Z,999.65
2018-01-10T00:02:32.606Z,999.68
2018-01-10T00:03:32.570Z,999.68
2018-01-10T00:05:25.423Z,999.66
2018-01-10T00:06:25.399Z,999.68
2018-01-10T00:08:18.269Z,999.69
2018-01-10T00:09:18.233Z,999.67
2018-01-10T00:11:11.090Z,999.66
2018-01-10T00:12:11.072Z,999.62
2018-01-10T00:14:03.925Z,999.57
2018-01-10T00:15:03.998Z,999.63
2018-01-10T00:16:56.742Z,999.67
2018-01-10T00:17:56.722Z,999.60
2018-01-10T00:19:49.587Z,999.63
2018-01-10T00:20:49.549Z,999.59
2018-01-10T00:22:42.396Z,999.62
2018-01-10T00:23:42.376Z,999.58
2018-01-10T00:25:35.243Z,999.59
2018-01-10T00:26:35.203Z,999.60
2018-01-10T00:28:28.059Z,999.62
2018-01-10T00:29:28.038Z,999.60
2018-01-10T00:31:20.912Z,999.61
2018-01-10T00:32:20.871Z,999.45
2018-01-10T00:34:13.724Z,999.46
2018-01-10T00:35:13.702Z,999.38
2018-01-10T00:37:06.562Z,999.35
2018-01-10T00:38:06.528Z,999.39
2018-01-10T00:39:59.374Z,999.30
2018-01-10T00:40:59.356Z,999.32
2018-01-10T00:42:52.243Z,999.31
2018-01-10T00:43:52.186Z,999.31
2018-01-10T00:45:45.053Z,999.19
2018-01-10T00:46:45.028Z,999.24
2018-01-10T00:48:37.894Z,999.33
2018-01-10T00:49:37.854Z,999.21
2018-01-10T00:51:30.704Z,999.12
2018-01-10T00:52:30.684Z,999.11
2018-01-10T00:54:23.554Z,999.11
2018-01-10T00:55:23.517Z,999.11
2018-01-10T00:57:16.370Z,999.16
2018-01-10T00:58:16.350Z,999.11
2018-01-10T01:00:09.371Z,999.11
2018-01-10T01:01:09.178Z,999.08
2018-01-10T01:03:02.065Z,999.01
2018-01-10T01:04:02.011Z,999.10
2018-01-10T01:05:54.872Z,999.02
2018-01-10T01:06:54.839Z,999.05
2018-01-10T01:08:47.684Z,999.05
2018-01-10T01:09:47.661Z,999.05
2018-01-10T01:11:40.528Z,999.09
2018-01-10T01:12:40.490Z,999.04
2018-01-10T01:14:33.346Z,999.00
2018-01-10T01:15:33.319Z,999.03
2018-01-10T01:17:26.192Z,999.02
2018-01-10T01:18:26.210Z,999.02
2018-01-10T01:20:18.996Z,998.96
2018-01-10T01:21:18.980Z,998.96
2018-01-10T01:23:11.849Z,998.98
2018-01-10T01:24:11.810Z,999.03
2018-01-10T01:26:04.661Z,998.95
2018-01-10T01:27:04.668Z,998.95
2018-01-10T01:28:57.506Z,999.02
2018-01-10T01:29:57.473Z,998.99
2018-01-10T01:31:50.313Z,999.03
2018-01-10T01:32:50.295Z,999.01
2018-01-10T01:34:43.736Z,998.98
2018-01-10T01:35:43.120Z,998.96
2018-01-10T01:37:35.970Z,998.94
2018-01-10T01:38:35.950Z,998.98
2018-01-10T01:40:28.827Z,998.92
2018-01-10T01:41:28.807Z,998.96
2018-01-10T01:43:21.634Z,998.92
2018-01-10T01:44:21.616Z,998.94
2018-01-10T01:46:14.480Z,998.96
2018-01-10T01:47:14.444Z,998.99
2018-01-10T01:49:07.289Z,998.99
2018-01-10T01:50:07.269Z,999.04
2018-01-10T01:52:00.140Z,999.03
2018-01-10T01:53:00.099Z,999.00
2018-01-10T01:54:52.946Z,999.03
2018-01-10T01:55:52.926Z,998.98
2018-01-10T01:57:45.793Z,998.99
2018-01-10T01:58:45.766Z,998.94
2018-01-10T02:00:38.691Z,998.98
2018-01-10T02:01:38.667Z,998.98
2018-01-10T02:03:31.533Z,998.95
2018-01-10T02:04:31.499Z,998.94
2018-01-10T02:06:24.358Z,999.00
2018-01-10T02:07:24.336Z,998.99
2018-01-10T02:09:17.207Z,999.00
2018-01-10T02:10:17.170Z,999.01
2018-01-10T02:12:10.020Z,998.96
2018-01-10T02:13:09.998Z,998.96
2018-01-10T02:15:02.867Z,998.96
2018-01-10T02:16:02.827Z,998.97
2018-01-10T02:17:55.675Z,998.95
2018-01-10T02:18:55.653Z,998.99
2018-01-10T02:20:48.600Z,999.02
2018-01-10T02:21:48.488Z,999.00
2018-01-10T02:23:41.335Z,999.05
2018-01-10T02:24:41.316Z,999.03
2018-01-10T02:26:34.181Z,999.02
2018-01-10T02:27:34.148Z,999.03
2018-01-10T02:29:26.997Z,998.97
2018-01-10T02:30:26.979Z,998.99
2018-01-10T02:32:19.847Z,998.97
2018-01-10T02:33:19.804Z,998.95
2018-01-10T02:35:12.659Z,998.97
2018-01-10T02:36:12.638Z,998.97
2018-01-10T02:38:05.580Z,998.94
2018-01-10T02:39:05.468Z,998.86
2018-01-10T02:40:58.315Z,998.90
2018-01-10T02:41:58.297Z,998.95
2018-01-10T02:43:51.161Z,998.84
2018-01-10T02:44:51.122Z,998.88
2018-01-10T02:46:43.984Z,998.88
2018-01-10T02:47:43.961Z,998.85
2018-01-10T02:49:36.918Z,998.86
2018-01-10T02:50:36.790Z,998.91
2018-01-10T02:52:29.641Z,998.90
2018-01-10T02:53:29.624Z,998.92
2018-01-10T02:55:22.482Z,998.90
2018-01-10T02:56:22.451Z,998.92
2018-01-10T02:58:15.300Z,998.90
2018-01-10T02:59:15.279Z,998.95
2018-01-10T03:01:08.146Z,998.96
2018-01-10T03:02:08.113Z,998.93
2018-01-10T03:04:00.955Z,998.92
2018-01-10T03:05:00.936Z,998.95
2018-01-10T03:06:53.808Z,998.91
2018-01-10T03:07:53.765Z,998.93
2018-01-10T03:09:46.620Z,998.87
2018-01-10T03:10:46.598Z,998.91
2018-01-10T03:12:39.471Z,998.89
2018-01-10T03:13:39.427Z,998.87
2018-01-10T03:15:32.279Z,998.87
2018-01-10T03:16:32.258Z,998.86
2018-01-10T03:18:25.129Z,998.85
2018-01-10T03:19:25.086Z,998.84
2018-01-10T03:21:17.936Z,998.83
2018-01-10T03:22:17.909Z,998.90
2018-01-10T03:24:10.779Z,998.84
2018-01-10T03:25:10.740Z,998.84
2018-01-10T03:27:03.639Z,998.88
2018-01-10T03:28:03.571Z,998.89
2018-01-10T03:29:56.440Z,998.91
2018-01-10T03:30:56.405Z,998.93
2018-01-10T03:32:49.283Z,998.89
2018-01-10T03:33:49.232Z,998.88
2018-01-10T03:35:42.100Z,998.88
2018-01-10T03:36:42.063Z,998.91
2018-01-10T03:38:34.920Z,998.89
2018-01-10T03:39:34.888Z,998.89
2018-01-10T03:41:27.759Z,998.90
2018-01-10T03:42:27.718Z,998.90
2018-01-10T03:44:20.565Z,998.89
2018-01-10T03:45:20.543Z,998.91
2018-01-10T03:47:13.422Z,998.94
2018-01-10T03:48:13.374Z,998.95
2018-01-10T03:50:06.221Z,998.94
2018-01-10T03:51:06.202Z,998.96
2018-01-10T03:52:59.080Z,998.95
2018-01-10T03:53:59.033Z,998.92
2018-01-10T03:55:51.883Z,998.91
2018-01-10T03:56:51.860Z,998.95
2018-01-10T03:58:44.736Z,998.97
2018-01-10T03:59:44.700Z,998.94
2018-01-10T04:01:37.551Z,998.94
2018-01-10T04:02:37.528Z,998.93
2018-01-10T04:04:30.392Z,998.95
2018-01-10T04:05:30.354Z,998.93
2018-01-10T04:07:23.209Z,998.96
2018-01-10T04:08:23.183Z,998.95
2018-01-10T04:10:16.060Z,999.01
2018-01-10T04:11:16.014Z,999.00
2018-01-10T04:13:08.861Z,998.99
2018-01-10T04:14:08.841Z,998.98
2018-01-10T04:16:01.711Z,998.99
2018-01-10T04:17:01.671Z,998.98
2018-01-10T04:18:54.528Z,999.00
2018-01-10T04:19:54.505Z,998.96
2018-01-10T04:21:47.371Z,998.98
2018-01-10T04:22:47.365Z,998.97
2018-01-10T04:24:40.180Z,999.00
2018-01-10T04:25:40.159Z,998.98
2018-01-10T04:27:33.051Z,998.98
2018-01-10T04:28:33.013Z,998.94
2018-01-10T04:30:25.860Z,998.94
2018-01-10T04:31:25.845Z,998.97
2018-01-10T04:33:18.710Z,998.96
2018-01-10T04:34:18.673Z,998.94
2018-01-10T04:36:11.523Z,998.98
2018-01-10T04:37:11.498Z,998.94
2018-01-10T04:39:04.363Z,999.00
2018-01-10T04:40:04.325Z,998.98
2018-01-10T04:41:57.175Z,999.00
2018-01-10T04:42:57.150Z,999.04
2018-01-10T04:44:50.019Z,999.07
2018-01-10T04:45:49.980Z,999.05
2018-01-10T04:47:42.831Z,999.08
2018-01-10T04:48:42.807Z,999.05
2018-01-10T04:50:35.687Z,999.08
2018-01-10T04:51:35.671Z,999.04
2018-01-10T04:53:28.503Z,999.11
2018-01-10T04:54:28.480Z,999.12
2018-01-10T04:56:21.345Z,999.08
2018-01-10T04:57:21.309Z,999.03
2018-01-10T04:59:14.162Z,999.06
2018-01-10T05:00:14.141Z,999.07
2018-01-10T05:02:07.014Z,999.04
2018-01-10T05:03:06.967Z,999.05
2018-01-10T05:04:59.815Z,999.09
2018-01-10T05:05:59.791Z,999.04
2018-01-10T05:07:52.664Z,999.08
2018-01-10T05:08:52.628Z,999.11
2018-01-10T05:12:17.781Z,999.09
2018-01-10T05:13:17.680Z,999.13
2018-01-10T05:15:10.549Z,999.10
2018-01-10T05:16:10.502Z,999.11
2018-01-10T05:18:03.351Z,999.13
2018-01-10T05:19:03.334Z,999.09
2018-01-10T05:20:56.194Z,999.12
2018-01-10T05:21:56.161Z,999.14
2018-01-10T05:23:49.005Z,999.15
2018-01-10T05:24:48.986Z,999.10
2018-01-10T05:26:41.856Z,999.15
2018-01-10T05:27:41.815Z,999.11
2018-01-10T05:29:34.675Z,999.11
2018-01-10T05:30:34.654Z,999.16
2018-01-10T05:32:27.529Z,999.12
2018-01-10T05:33:27.489Z,999.18
2018-01-10T05:35:20.345Z,999.10
2018-01-10T05:36:20.325Z,999.09
2018-01-10T05:38:13.189Z,999.07
2018-01-10T05:39:13.151Z,999.06
2018-01-10T05:41:06.004Z,999.05
2018-01-10T05:42:05.984Z,999.09
2018-01-10T05:43:58.848Z,999.07
2018-01-10T05:44:58.813Z,999.12
2018-01-10T05:46:51.663Z,999.06
2018-01-10T05:47:51.642Z,999.13
2018-01-10T05:49:44.509Z,999.06
2018-01-10T05:50:44.474Z,999.08
2018-01-10T05:52:37.327Z,999.08
2018-01-10T05:53:37.309Z,999.05
2018-01-10T05:55:30.169Z,999.07
2018-01-10T05:56:30.139Z,999.01
2018-01-10T05:58:22.983Z,999.06
2018-01-10T05:59:22.964Z,999.11
2018-01-10T06:01:15.840Z,999.07
2018-01-10T06:02:15.804Z,999.07
2018-01-10T06:04:08.658Z,999.10
2018-01-10T06:05:08.636Z,999.03
2018-01-10T06:07:01.504Z,999.00
2018-01-10T06:08:01.467Z,998.98
2018-01-10T06:09:54.321Z,999.00
2018-01-10T06:10:54.301Z,999.03
2018-01-10T06:12:47.162Z,999.06
2018-01-10T06:13:47.123Z,999.01
2018-01-10T06:15:39.974Z,999.02
2018-01-10T06:16:39.954Z,999.01
2018-01-10T06:18:32.834Z,999.06
2018-01-10T06:19:32.788Z,999.09
2018-01-10T06:21:25.632Z,999.10
2018-01-10T06:22:25.611Z,999.08
2018-01-10T06:24:18.484Z,999.10
2018-01-10T06:25:18.444Z,999.08
2018-01-10T06:27:11.293Z,999.09
2018-01-10T06:28:11.268Z,999.09
2018-01-10T06:30:04.130Z,999.08
2018-01-10T06:31:04.094Z,999.06
2018-01-10T06:32:56.947Z,999.08
2018-01-10T06:33:56.930Z,999.06
2018-01-10T06:35:49.793Z,999.08
2018-01-10T06:36:49.754Z,999.09
2018-01-10T06:38:42.605Z,998.99
2018-01-10T06:39:42.584Z,999.06
2018-01-10T06:41:35.749Z,999.03
2018-01-10T06:42:35.413Z,999.04
2018-01-10T06:44:28.259Z,999.07
2018-01-10T06:45:28.236Z,999.02
2018-01-10T06:47:21.103Z,999.02
2018-01-10T06:48:21.064Z,999.03
2018-01-10T06:50:13.921Z,999.05
2018-01-10T06:51:13.895Z,999.05
2018-01-10T06:53:06.761Z,999.03
2018-01-10T06:54:06.723Z,999.03
2018-01-10T06:55:59.577Z,998.99
2018-01-10T06:56:59.557Z,999.04
2018-01-10T06:58:52.433Z,999.03
2018-01-10T06:59:52.387Z,999.03
2018-01-10T07:01:45.235Z,999.03
2018-01-10T07:02:45.217Z,998.95
2018-01-10T07:04:38.078Z,998.93
2018-01-10T07:05:38.040Z,998.93
2018-01-10T07:07:30.892Z,999.00
2018-01-10T07:08:30.878Z,999.01
2018-01-10T07:10:23.739Z,999.01
2018-01-10T07:11:23.697Z,998.99
2018-01-10T07:13:16.544Z,999.01
2018-01-10T07:14:16.529Z,999.04
2018-01-10T07:16:09.399Z,998.98
2018-01-10T07:17:09.360Z,998.98
2018-01-10T07:19:02.213Z,999.02
2018-01-10T07:20:02.190Z,999.02
2018-01-10T07:21:55.068Z,999.04
2018-01-10T07:22:55.021Z,999.07
2018-01-10T07:24:47.870Z,999.05
2018-01-10T07:25:47.847Z,999.03
2018-01-10T07:27:40.709Z,999.07
2018-01-10T07:28:40.673Z,999.01
2018-01-10T07:30:33.530Z,999.00
2018-01-10T07:31:33.503Z,999.00
2018-01-10T07:33:26.371Z,999.00
2018-01-10T07:34:26.331Z,998.97
2018-01-10T07:36:19.192Z,999.01
2018-01-10T07:37:19.165Z,999.02
2018-01-10T07:39:12.034Z,999.01
2018-01-10T07:40:11.997Z,999.00
2018-01-10T07:42:04.851Z,999.05
2018-01-10T07:43:04.829Z,999.06
2018-01-10T07:44:57.699Z,999.03
2018-01-10T07:45:57.657Z,999.05
2018-01-10T07:47:50.513Z,999.05
2018-01-10T07:48:50.489Z,999.04
2018-01-10T07:50:43.366Z,999.09
2018-01-10T07:51:43.322Z,999.09
2018-01-10T07:53:36.168Z,999.14
2018-01-10T07:54:36.150Z,999.10
2018-01-10T07:56:29.018Z,999.05
2018-01-10T07:57:28.977Z,999.08
2018-01-10T07:59:21.832Z,999.09
2018-01-10T08:00:21.811Z,999.05
2018-01-10T08:02:14.678Z,999.07
2018-01-10T08:03:14.639Z,999.09
2018-01-10T08:05:07.486Z,999.07
2018-01-10T08:06:07.470Z,999.06
2018-01-10T08:08:00.336Z,999.03
2018-01-10T08:09:00.303Z,999.04
2018-01-10T08:10:53.156Z,998.96
2018-01-10T08:11:53.132Z,998.96
2018-01-10T08:13:45.997Z,998.96
2018-01-10T08:14:45.960Z,998.97
2018-01-10T08:16:38.813Z,998.98
2018-01-10T08:17:38.798Z,998.96
2018-01-10T08:19:31.658Z,998.95
2018-01-10T08:20:31.625Z,998.96
2018-01-10T08:22:24.482Z,998.92
2018-01-10T08:23:24.459Z,998.89
2018-01-10T08:25:17.330Z,998.89
2018-01-10T08:26:17.347Z,998.94
2018-01-10T08:28:10.232Z,998.93
2018-01-10T08:29:10.239Z,998.98
2018-01-10T08:31:03.102Z,998.99
2018-01-10T08:32:03.017Z,999.01
2018-01-10T08:33:55.877Z,998.99
2018-01-10T08:34:55.900Z,998.99
2018-01-10T08:36:48.721Z,999.01
2018-01-10T08:37:48.683Z,998.98
2018-01-10T08:39:41.551Z,999.02
2018-01-10T08:40:41.530Z,999.02
2018-01-10T08:42:34.397Z,998.99
2018-01-10T08:43:34.356Z,999.00
2018-01-10T08:45:27.208Z,998.97
2018-01-10T08:46:27.185Z,998.96
2018-01-10T08:48:20.067Z,998.90
2018-01-10T08:49:20.018Z,998.96
2018-01-10T08:51:12.870Z,998.92
2018-01-10T08:52:12.850Z,998.92
2018-01-10T08:54:05.717Z,998.94
2018-01-10T08:55:05.677Z,998.93
2018-01-10T08:56:59.011Z,998.99
2018-01-10T08:57:58.990Z,998.92
2018-01-10T08:59:52.786Z,998.95
2018-01-10T09:00:52.753Z,998.95
2018-01-10T09:02:45.607Z,998.95
2018-01-10T09:03:45.583Z,998.96
2018-01-10T09:05:38.462Z,998.97
2018-01-10T09:06:38.424Z,998.96
2018-01-10T09:08:31.278Z,998.97
2018-01-10T09:09:31.254Z,998.99
2018-01-10T09:11:24.119Z,998.97
2018-01-10T09:12:24.085Z,998.95
2018-01-10T09:14:16.944Z,998.92
2018-01-10T09:15:16.924Z,998.91
2018-01-10T09:17:09.797Z,998.91
2018-01-10T09:18:09.760Z,998.91
2018-01-10T09:20:02.611Z,998.88
2018-01-10T09:21:02.590Z,998.83
2018-01-10T09:22:55.464Z,998.84
2018-01-10T09:23:55.433Z,998.87
2018-01-10T09:25:48.288Z,998.91
2018-01-10T09:26:48.269Z,998.90
2018-01-10T09:28:41.141Z,998.89
2018-01-10T09:29:41.103Z,998.95
2018-01-10T09:31:33.953Z,998.94
2018-01-10T09:32:33.931Z,998.90
2018-01-10T09:34:26.806Z,998.91
2018-01-10T09:35:26.769Z,998.91
2018-01-10T09:37:19.621Z,998.94
2018-01-10T09:38:19.601Z,998.90
2018-01-10T09:40:12.477Z,998.95
2018-01-10T09:41:12.438Z,998.89
2018-01-10T09:43:05.293Z,998.90
2018-01-10T09:44:05.272Z,998.85
2018-01-10T09:45:58.146Z,998.87
2018-01-10T09:46:58.112Z,998.86
2018-01-10T09:48:50.967Z,998.78
2018-01-10T09:49:50.948Z,998.80
2018-01-10T09:51:43.823Z,998.78
2018-01-10T09:52:43.787Z,998.75
2018-01-10T09:54:36.639Z,998.73
2018-01-10T09:55:36.624Z,998.75
2018-01-10T09:57:30.316Z,998.69
2018-01-10T09:58:30.279Z,998.70
2018-01-10T10:00:23.191Z,998.63
2018-01-10T10:01:23.160Z,998.65
2018-01-10T10:03:16.027Z,998.64
2018-01-10T10:04:15.997Z,998.63
2018-01-10T10:06:08.849Z,998.61
2018-01-10T10:07:08.832Z,998.64
2018-01-10T10:09:01.703Z,998.64
2018-01-10T10:10:01.664Z,998.63
2018-01-10T10:11:55.029Z,998.61
2018-01-10T10:12:55.027Z,998.62
2018-01-10T10:14:47.879Z,998.64
2018-01-10T10:15:47.843Z,998.62
2018-01-10T10:17:40.699Z,998.61
2018-01-10T10:18:40.677Z,998.57
2018-01-10T10:20:33.562Z,998.60
2018-01-10T10:21:33.516Z,998.56
2018-01-10T10:23:26.372Z,998.53
2018-01-10T10:24:26.352Z,998.53
2018-01-10T10:26:19.228Z,998.47
2018-01-10T10:27:19.180Z,998.42
2018-01-10T10:29:12.036Z,998.46
2018-01-10T10:30:12.018Z,998.45
2018-01-10T10:32:04.892Z,998.39
2018-01-10T10:33:04.854Z,998.38
2018-01-10T10:34:57.708Z,998.38
2018-01-10T10:35:57.688Z,998.36
2018-01-10T10:37:51.550Z,998.32
2018-01-10T10:38:51.514Z,998.27
2018-01-10T10:40:44.375Z,998.20
2018-01-10T10:41:44.356Z,998.19
2018-01-10T10:43:37.260Z,998.19
2018-01-10T10:44:37.190Z,998.17
2018-01-10T10:46:30.053Z,998.21
2018-01-10T10:47:30.029Z,998.24
2018-01-10T10:49:22.951Z,998.22
2018-01-10T10:50:22.869Z,998.18
2018-01-10T10:52:15.724Z,998.14
2018-01-10T10:53:15.704Z,998.14
2018-01-10T10:55:08.576Z,998.16
2018-01-10T10:56:08.536Z,998.15
2018-01-10T10:58:02.280Z,998.16
2018-01-10T10:59:02.289Z,998.13
2018-01-10T11:00:55.622Z,998.12
2018-01-10T11:01:55.588Z,998.13
2018-01-10T11:03:48.486Z,998.07
2018-01-10T11:04:48.462Z,998.07
2018-01-10T11:06:41.339Z,998.03
2018-01-10T11:07:41.298Z,998.05
2018-01-10T11:09:34.154Z,997.99
2018-01-10T11:10:34.142Z,998.00
2018-01-10T11:12:27.010Z,997.98
2018-01-10T11:13:26.973Z,997.95
2018-01-10T11:15:19.831Z,997.96
2018-01-10T11:16:19.811Z,997.99
2018-01-10T11:18:12.686Z,998.00
2018-01-10T11:19:12.643Z,998.03
2018-01-10T11:21:05.509Z,998.04
2018-01-10T11:22:05.495Z,997.96
2018-01-10T11:23:58.363Z,998.00
2018-01-10T11:24:58.329Z,998.04
2018-01-10T11:26:51.182Z,997.96
2018-01-10T11:27:51.161Z,997.97
2018-01-10T11:29:44.031Z,997.95
2018-01-10T11:30:43.995Z,997.93
2018-01-10T11:32:36.848Z,997.89
2018-01-10T11:33:36.831Z,997.89
2018-01-10T11:35:29.705Z,997.88
2018-01-10T11:36:29.672Z,997.83
2018-01-10T11:38:22.531Z,997.80
2018-01-10T11:39:22.507Z,997.80
2018-01-10T11:41:15.387Z,997.77
2018-01-10T11:42:15.355Z,997.77
2018-01-10T11:44:08.203Z,997.70
2018-01-10T11:45:08.185Z,997.66
2018-01-10T11:47:01.051Z,997.65
2018-01-10T11:48:01.016Z,997.61
2018-01-10T11:49:53.877Z,997.59
2018-01-10T11:50:53.898Z,997.63
2018-01-10T11:52:46.730Z,997.55
2018-01-10T11:53:46.696Z,997.56
2018-01-10T11:55:39.552Z,997.50
2018-01-10T11:56:39.536Z,997.50
2018-01-10T11:58:32.525Z,997.52
2018-01-10T11:59:32.492Z,997.54
2018-01-10T12:01:26.173Z,997.49
2018-01-10T12:02:26.147Z,997.46
2018-01-10T12:04:19.026Z,997.48
2018-01-10T12:05:18.987Z,997.46
2018-01-10T12:07:11.850Z,997.42
2018-01-10T12:08:11.830Z,997.44
2018-01-10T12:10:04.703Z,997.42
2018-01-10T12:11:04.671Z,997.42
2018-01-10T12:12:57.530Z,997.38
2018-01-10T12:13:57.510Z,997.43
2018-01-10T12:15:50.700Z,997.43
2018-01-10T12:16:50.666Z,997.40
2018-01-10T12:18:43.881Z,997.39
2018-01-10T12:19:43.860Z,997.41
2018-01-10T12:21:37.248Z,997.38
2018-01-10T12:22:37.215Z,997.37
2018-01-10T12:24:30.066Z,997.27
2018-01-10T12:25:30.048Z,997.31
2018-01-10T12:27:23.140Z,997.36
2018-01-10T12:28:22.884Z,997.30
2018-01-10T12:30:15.852Z,997.30
2018-01-10T12:31:15.728Z,997.35
2018-01-10T12:33:08.635Z,997.28
2018-01-10T12:34:08.599Z,997.26
2018-01-10T12:36:01.458Z,997.23
2018-01-10T12:37:01.437Z,997.24
2018-01-10T12:38:54.546Z,997.24
2018-01-10T12:39:54.520Z,997.26
2018-01-10T12:41:48.306Z,997.21
2018-01-10T12:42:48.293Z,997.15
2018-01-10T12:44:41.357Z,997.17
2018-01-10T12:45:41.322Z,997.16
2018-01-10T12:47:34.177Z,997.14
2018-01-10T12:48:34.160Z,997.07
2018-01-10T12:50:27.105Z,997.04
2018-01-10T12:51:26.996Z,997.04
2018-01-10T12:53:19.859Z,997.04
2018-01-10T12:54:19.842Z,997.03
2018-01-10T12:56:13.083Z,997.02
2018-01-10T12:57:13.052Z,996.98
2018-01-10T12:59:06.342Z,997.01
2018-01-10T13:00:06.318Z,996.99
2018-01-10T13:02:00.059Z,997.01
2018-01-10T13:03:00.025Z,997.00
2018-01-10T13:04:53.185Z,996.99
2018-01-10T13:05:53.165Z,996.99
2018-01-10T13:07:46.046Z,997.01
2018-01-10T13:08:46.013Z,997.01
2018-01-10T13:10:38.873Z,997.01
2018-01-10T13:11:38.855Z,997.09
2018-01-10T13:13:31.723Z,997.04
2018-01-10T13:14:31.689Z,997.10
2018-01-10T13:16:25.123Z,997.10
2018-01-10T13:17:25.124Z,997.14
2018-01-10T13:19:18.916Z,997.16
2018-01-10T13:20:18.882Z,997.17
2018-01-10T13:22:12.669Z,997.17
2018-01-10T13:23:12.645Z,997.16
2018-01-10T13:25:06.403Z,997.17
2018-01-10T13:26:06.371Z,997.18
2018-01-10T13:28:00.102Z,997.15
2018-01-10T13:29:00.110Z,997.17
2018-01-10T13:30:53.102Z,997.16
2018-01-10T13:31:53.056Z,997.17
2018-01-10T13:33:45.916Z,997.24
2018-01-10T13:34:45.896Z,997.22
2018-01-10T13:36:39.336Z,997.19
2018-01-10T13:37:39.277Z,997.17
2018-01-10T13:39:32.183Z,997.16
2018-01-10T13:40:32.160Z,997.22
2018-01-10T13:42:25.925Z,997.23
2018-01-10T13:43:25.890Z,997.25
2018-01-10T13:45:18.926Z,997.29
2018-01-10T13:46:18.926Z,997.29
2018-01-10T13:48:12.665Z,997.26
2018-01-10T13:49:12.619Z,997.26
2018-01-10T13:51:06.349Z,997.26
2018-01-10T13:52:06.325Z,997.23
2018-01-10T13:54:00.129Z,997.22
2018-01-10T13:55:00.094Z,997.29
2018-01-10T13:56:53.821Z,997.23
2018-01-10T13:57:53.806Z,997.27
2018-01-10T13:59:47.179Z,997.27
2018-01-10T14:00:47.142Z,997.28
2018-01-10T14:02:40.001Z,997.25
2018-01-10T14:03:39.979Z,997.28
2018-01-10T14:05:32.852Z,997.26
2018-01-10T14:06:32.819Z,997.21
2018-01-10T14:08:26.528Z,997.16
2018-01-10T14:09:26.511Z,997.25
2018-01-10T14:11:19.508Z,997.23
2018-01-10T14:12:19.471Z,997.25
2018-01-10T14:14:12.324Z,997.29
2018-01-10T14:15:12.311Z,997.24
2018-01-10T14:17:05.772Z,997.24
2018-01-10T14:18:05.734Z,997.26
2018-01-10T14:19:59.323Z,997.26
2018-01-10T14:20:59.298Z,997.25
2018-01-10T14:22:53.054Z,997.26
2018-01-10T14:23:53.015Z,997.29
2018-01-10T14:25:45.876Z,997.34
2018-01-10T14:26:45.857Z,997.28
2018-01-10T14:28:39.362Z,997.26
2018-01-10T14:29:39.325Z,997.30
2018-01-10T14:31:33.081Z,997.32
2018-01-10T14:32:33.062Z,997.32
2018-01-10T14:34:25.939Z,997.29
2018-01-10T14:35:25.903Z,997.31
2018-01-10T14:37:18.758Z,997.30
2018-01-10T14:38:18.737Z,997.33
2018-01-10T14:40:12.501Z,997.29
2018-01-10T14:41:12.463Z,997.29
2018-01-10T14:43:06.211Z,997.27
2018-01-10T14:44:06.191Z,997.29
2018-01-10T14:45:59.871Z,997.29
2018-01-10T14:46:59.835Z,997.29
2018-01-10T14:48:53.000Z,997.29
2018-01-10T14:49:52.983Z,997.30
2018-01-10T14:51:46.827Z,997.33
2018-01-10T14:52:46.831Z,997.30
2018-01-10T14:54:40.221Z,997.29
2018-01-10T14:55:40.203Z,997.24
2018-01-10T14:57:33.948Z,997.30
2018-01-10T14:58:33.934Z,997.33
2018-01-10T15:00:27.678Z,997.32
2018-01-10T15:01:27.659Z,997.28
2018-01-10T15:03:21.427Z,997.32
2018-01-10T15:04:21.395Z,997.29
2018-01-10T15:06:14.988Z,997.27
2018-01-10T15:07:14.975Z,997.27
2018-01-10T15:09:08.227Z,997.29
2018-01-10T15:10:08.196Z,997.29
2018-01-10T15:12:01.379Z,997.35
2018-01-10T15:13:01.358Z,997.33
2018-01-10T15:14:55.116Z,997.34
2018-01-10T15:15:55.076Z,997.35
2018-01-10T15:17:49.844Z,997.33
2018-01-10T15:18:49.827Z,997.35
2018-01-10T15:20:43.688Z,997.36
2018-01-10T15:21:43.653Z,997.31
2018-01-10T15:23:37.443Z,997.32
2018-01-10T15:24:37.422Z,997.33
2018-01-10T15:26:31.088Z,997.32
2018-01-10T15:27:31.049Z,997.33
2018-01-10T15:29:24.163Z,997.32
2018-01-10T15:30:24.150Z,997.31
2018-01-10T15:32:17.918Z,997.33
2018-01-10T15:33:17.877Z,997.36
2018-01-10T15:35:11.646Z,997.34
2018-01-10T15:36:11.621Z,997.33
2018-01-10T15:38:05.407Z,997.37
2018-01-10T15:39:05.368Z,997.35
2018-01-10T15:40:59.020Z,997.37
2018-01-10T15:41:58.998Z,997.33
2018-01-10T15:43:52.645Z,997.36
2018-01-10T15:44:52.610Z,997.36
2018-01-10T15:46:46.369Z,997.35
2018-01-10T15:47:46.348Z,997.38
2018-01-10T15:49:39.502Z,997.39
2018-01-10T15:50:39.466Z,997.43
2018-01-10T15:52:33.148Z,997.43
2018-01-10T15:53:33.127Z,997.49
2018-01-10T15:55:26.860Z,997.49
2018-01-10T15:56:26.826Z,997.53
2018-01-10T15:58:20.530Z,997.52
2018-01-10T15:59:20.512Z,997.54
2018-01-10T16:01:14.292Z,997.50
2018-01-10T16:02:14.274Z,997.53
2018-01-10T16:04:07.589Z,997.42
2018-01-10T16:05:07.570Z,997.44
2018-01-10T16:07:01.328Z,997.47
2018-01-10T16:08:01.293Z,997.41
2018-01-10T16:09:55.064Z,997.42
2018-01-10T16:10:55.040Z,997.42
2018-01-10T16:12:48.926Z,997.45
2018-01-10T16:13:48.892Z,997.47
2018-01-10T16:15:42.191Z,997.45
2018-01-10T16:16:42.170Z,997.48
2018-01-10T16:18:35.249Z,997.47
2018-01-10T16:19:35.209Z,997.44
2018-01-10T16:21:28.863Z,997.45
2018-01-10T16:22:28.841Z,997.44
2018-01-10T16:24:22.630Z,997.48
2018-01-10T16:25:22.591Z,997.42
2018-01-10T16:27:16.347Z,997.47
2018-01-10T16:28:16.310Z,997.48
2018-01-10T16:30:10.049Z,997.47
2018-01-10T16:31:10.018Z,997.48
2018-01-10T16:33:03.750Z,997.52
2018-01-10T16:34:03.757Z,997.53
2018-01-10T16:35:57.457Z,997.54
2018-01-10T16:36:57.426Z,997.52
2018-01-10T16:38:51.146Z,997.56
2018-01-10T16:39:51.127Z,997.55
2018-01-10T16:41:44.911Z,997.53
2018-01-10T16:42:44.873Z,997.54
2018-01-10T16:44:38.627Z,997.58
2018-01-10T16:45:38.609Z,997.59
2018-01-10T16:47:31.979Z,997.61
2018-01-10T16:48:31.940Z,997.61
2018-01-10T16:50:25.668Z,997.69
2018-01-10T16:51:25.647Z,997.70
2018-01-10T16:53:19.505Z,997.71
2018-01-10T16:54:19.431Z,997.70
2018-01-10T16:56:13.194Z,997.70
2018-01-10T16:57:13.180Z,997.71
2018-01-10T16:59:06.470Z,997.77
2018-01-10T17:00:06.432Z,997.74
2018-01-10T17:01:59.823Z,997.71
2018-01-10T17:02:59.802Z,997.66
2018-01-10T17:04:53.010Z,997.75
2018-01-10T17:05:52.972Z,997.79
2018-01-10T17:07:46.751Z,997.78
2018-01-10T17:08:46.732Z,997.73
2018-01-10T17:10:39.642Z,997.77
2018-01-10T17:11:39.600Z,997.82
2018-01-10T17:13:33.368Z,997.85
2018-01-10T17:14:33.342Z,997.85
2018-01-10T17:16:27.106Z,997.91
2018-01-10T17:17:27.071Z,997.89
2018-01-10T17:19:20.782Z,997.92
2018-01-10T17:20:20.753Z,997.94
2018-01-10T17:22:14.511Z,997.96
2018-01-10T17:23:14.494Z,997.91
2018-01-10T17:25:08.251Z,997.90
2018-01-10T17:26:08.217Z,997.91
2018-01-10T17:28:01.929Z,997.89
2018-01-10T17:29:01.890Z,997.92
2018-01-10T17:30:55.598Z,997.94
2018-01-10T17:31:55.629Z,997.94
2018-01-10T17:33:49.261Z,997.95
2018-01-10T17:34:49.216Z,997.96
2018-01-10T17:36:43.061Z,997.99
2018-01-10T17:37:43.036Z,998.00
2018-01-10T17:39:36.807Z,998.01
2018-01-10T17:40:36.763Z,998.04
2018-01-10T17:42:30.498Z,998.06
2018-01-10T17:43:30.480Z,998.11
2018-01-10T17:45:23.945Z,998.07
2018-01-10T17:46:23.913Z,998.06
2018-01-10T17:48:17.513Z,998.07
2018-01-10T17:49:17.496Z,998.06
2018-01-10T17:51:11.234Z,998.08
2018-01-10T17:52:11.198Z,998.06
2018-01-10T17:54:04.547Z,998.12
2018-01-10T17:55:04.526Z,998.07
2018-01-10T17:56:58.290Z,998.14
2018-01-10T17:57:58.256Z,998.15
2018-01-10T17:59:51.721Z,998.17
2018-01-10T18:00:51.701Z,998.19